sensor_id;sensor_type;location;lat;lon;timestamp;temperature;humidity
16253;DHT22;8234;41.480;2.306;2022-07-29T00:10:00;24.60;99.90
16253;DHT22;8234;41.480;2.306;2022-07-29T00:20:07;24.60;99.90
16253;DHT22;8234;41.480;2.306;2022-07-29T00:30:11;24.50;99.90
16253;DHT22;8234;41.480;2.306;2022-07-29T00:40:16;24.40;99.90
16253;DHT22;8234;41.480;2.306;2022-07-29T00:50:25;24.30;99.90
16253;DHT22;8234;41.480;2.306;2022-07-29T01:00:30;24.40;99.90
16253;DHT22;8234;41.480;2.306;2022-07-29T01:10:36;24.40;99.90
16253;DHT22;8234;41.480;2.306;2022-07-29T01:20:55;24.40;99.90
16253;DHT22;8234;41.480;2.306;2022-07-29T01:31:04;24.30;99.90
16253;DHT22;8234;41.480;2.306;2022-07-29T01:41:15;24.30;99.90
16253;DHT22;8234;41.480;2.306;2022-07-29T01:51:25;24.40;99.90
16253;DHT22;8234;41.480;2.306;2022-07-29T02:01:32;24.30;99.90
16253;DHT22;8234;41.480;2.306;2022-07-29T02:11:38;24.20;99.90
16253;DHT22;8234;41.480;2.306;2022-07-29T02:21:44;24.30;99.90
16253;DHT22;8234;41.480;2.306;2022-07-29T02:31:50;24.20;99.90
16253;DHT22;8234;41.480;2.306;2022-07-29T02:41:58;24.40;99.90
16253;DHT22;8234;41.480;2.306;2022-07-29T02:52:09;24.40;99.90
16253;DHT22;8234;41.480;2.306;2022-07-29T03:02:14;24.50;99.90
16253;DHT22;8234;41.480;2.306;2022-07-29T03:12:20;24.60;99.90
16253;DHT22;8234;41.480;2.306;2022-07-29T03:22:26;24.40;99.90
16253;DHT22;8234;41.480;2.306;2022-07-29T03:32:31;24.30;99.90
16253;DHT22;8234;41.480;2.306;2022-07-29T03:42:37;24.20;99.90
16253;DHT22;8234;41.480;2.306;2022-07-29T03:52:44;24.20;99.90
16253;DHT22;8234;41.480;2.306;2022-07-29T04:02:48;24.20;99.90
16253;DHT22;8234;41.480;2.306;2022-07-29T04:12:54;24.00;99.90
16253;DHT22;8234;41.480;2.306;2022-07-29T04:22:58;24.00;99.90
16253;DHT22;8234;41.480;2.306;2022-07-29T04:33:05;23.90;99.90
16253;DHT22;8234;41.480;2.306;2022-07-29T04:43:09;23.90;99.90
16253;DHT22;8234;41.480;2.306;2022-07-29T04:53:16;23.90;99.90
16253;DHT22;8234;41.480;2.306;2022-07-29T05:03:20;23.80;99.90
16253;DHT22;8234;41.480;2.306;2022-07-29T05:13:26;23.90;99.90
16253;DHT22;8234;41.480;2.306;2022-07-29T05:23:47;23.90;99.90
16253;DHT22;8234;41.480;2.306;2022-07-29T05:33:52;24.10;99.90
16253;DHT22;8234;41.480;2.306;2022-07-29T05:43:56;24.40;99.90
16253;DHT22;8234;41.480;2.306;2022-07-29T05:54:02;24.90;99.90
16253;DHT22;8234;41.480;2.306;2022-07-29T06:04:06;25.00;99.90
16253;DHT22;8234;41.480;2.306;2022-07-29T06:14:11;25.30;99.90
16253;DHT22;8234;41.480;2.306;2022-07-29T06:24:16;25.50;99.90
16253;DHT22;8234;41.480;2.306;2022-07-29T06:34:22;25.90;99.90
16253;DHT22;8234;41.480;2.306;2022-07-29T06:44:26;26.30;99.90
16253;DHT22;8234;41.480;2.306;2022-07-29T06:54:31;26.90;99.90
16253;DHT22;8234;41.480;2.306;2022-07-29T07:04:35;27.30;99.90
16253;DHT22;8234;41.480;2.306;2022-07-29T07:14:40;27.40;99.90
16253;DHT22;8234;41.480;2.306;2022-07-29T07:24:44;27.70;99.90
16253;DHT22;8234;41.480;2.306;2022-07-29T07:34:49;27.60;99.90
16253;DHT22;8234;41.480;2.306;2022-07-29T07:44:53;27.80;99.90
16253;DHT22;8234;41.480;2.306;2022-07-29T07:55:15;27.70;99.90
16253;DHT22;8234;41.480;2.306;2022-07-29T08:05:19;27.90;99.90
16253;DHT22;8234;41.480;2.306;2022-07-29T08:15:25;28.40;99.90
16253;DHT22;8234;41.480;2.306;2022-07-29T08:25:28;28.50;99.90
16253;DHT22;8234;41.480;2.306;2022-07-29T08:35:34;28.70;99.90
16253;DHT22;8234;41.480;2.306;2022-07-29T08:45:43;28.90;99.90
16253;DHT22;8234;41.480;2.306;2022-07-29T08:55:50;29.10;99.90
16253;DHT22;8234;41.480;2.306;2022-07-29T09:05:54;29.30;99.90
16253;DHT22;8234;41.480;2.306;2022-07-29T09:16:00;29.40;99.90
16253;DHT22;8234;41.480;2.306;2022-07-29T09:26:10;29.40;99.90
16253;DHT22;8234;41.480;2.306;2022-07-29T09:36:16;29.30;99.90
16253;DHT22;8234;41.480;2.306;2022-07-29T09:46:20;28.90;99.90
16253;DHT22;8234;41.480;2.306;2022-07-29T09:56:41;29.80;99.90
16253;DHT22;8234;41.480;2.306;2022-07-29T10:06:58;29.90;99.90
16253;DHT22;8234;41.480;2.306;2022-07-29T10:17:08;30.20;99.90
16253;DHT22;8234;41.480;2.306;2022-07-29T10:27:13;30.20;99.90
16253;DHT22;8234;41.480;2.306;2022-07-29T10:37:24;29.70;99.90
16253;DHT22;8234;41.480;2.306;2022-07-29T10:47:37;30.00;99.90
16253;DHT22;8234;41.480;2.306;2022-07-29T10:58:12;29.90;99.90
16253;DHT22;8234;41.480;2.306;2022-07-29T11:08:23;30.20;99.90
16253;DHT22;8234;41.480;2.306;2022-07-29T11:19:20;30.80;99.90
16253;DHT22;8234;41.480;2.306;2022-07-29T11:29:32;31.10;99.90
16253;DHT22;8234;41.480;2.306;2022-07-29T11:39:44;30.50;99.90
16253;DHT22;8234;41.480;2.306;2022-07-29T11:49:50;30.30;99.90
16253;DHT22;8234;41.480;2.306;2022-07-29T11:59:57;30.40;99.90
16253;DHT22;8234;41.480;2.306;2022-07-29T12:10:11;31.10;99.90
16253;DHT22;8234;41.480;2.306;2022-07-29T12:20:32;32.00;99.90
16253;DHT22;8234;41.480;2.306;2022-07-29T12:30:41;32.10;99.90
16253;DHT22;8234;41.480;2.306;2022-07-29T12:40:51;32.80;99.90
16253;DHT22;8234;41.480;2.306;2022-07-29T12:50:58;31.50;99.90
16253;DHT22;8234;41.480;2.306;2022-07-29T13:01:07;32.60;99.90
16253;DHT22;8234;41.480;2.306;2022-07-29T13:11:29;33.30;99.90
16253;DHT22;8234;41.480;2.306;2022-07-29T13:21:37;33.70;99.90
16253;DHT22;8234;41.480;2.306;2022-07-29T13:31:41;32.70;99.90
16253;DHT22;8234;41.480;2.306;2022-07-29T13:41:46;31.90;99.90
16253;DHT22;8234;41.480;2.306;2022-07-29T13:51:50;30.60;99.90
16253;DHT22;8234;41.480;2.306;2022-07-29T14:01:55;29.90;99.90
16253;DHT22;8234;41.480;2.306;2022-07-29T14:12:00;29.80;99.90
16253;DHT22;8234;41.480;2.306;2022-07-29T14:22:07;30.40;99.90
16253;DHT22;8234;41.480;2.306;2022-07-29T14:32:11;29.80;99.90
16253;DHT22;8234;41.480;2.306;2022-07-29T14:42:18;30.40;99.90
16253;DHT22;8234;41.480;2.306;2022-07-29T14:52:22;30.10;99.90
16253;DHT22;8234;41.480;2.306;2022-07-29T15:02:27;31.50;99.90
16253;DHT22;8234;41.480;2.306;2022-07-29T15:12:51;31.80;99.90
16253;DHT22;8234;41.480;2.306;2022-07-29T15:22:56;32.40;99.90
16253;DHT22;8234;41.480;2.306;2022-07-29T15:33:01;33.70;99.90
16253;DHT22;8234;41.480;2.306;2022-07-29T15:43:07;30.70;99.90
16253;DHT22;8234;41.480;2.306;2022-07-29T15:53:11;29.00;99.90
16253;DHT22;8234;41.480;2.306;2022-07-29T16:03:16;28.90;99.90
16253;DHT22;8234;41.480;2.306;2022-07-29T16:13:21;28.20;99.90
16253;DHT22;8234;41.480;2.306;2022-07-29T16:23:26;23.50;99.90
16253;DHT22;8234;41.480;2.306;2022-07-29T16:33:30;22.80;99.90
16253;DHT22;8234;41.480;2.306;2022-07-29T16:43:55;23.10;99.90
16253;DHT22;8234;41.480;2.306;2022-07-29T16:53:59;24.20;99.90
16253;DHT22;8234;41.480;2.306;2022-07-29T17:04:04;25.50;99.90
16253;DHT22;8234;41.480;2.306;2022-07-29T17:14:08;26.80;99.90
16253;DHT22;8234;41.480;2.306;2022-07-29T17:24:14;27.70;99.90
16253;DHT22;8234;41.480;2.306;2022-07-29T17:34:17;29.80;99.90
16253;DHT22;8234;41.480;2.306;2022-07-29T17:44:23;30.60;99.90
16253;DHT22;8234;41.480;2.306;2022-07-29T17:54:26;28.80;99.90
16253;DHT22;8234;41.480;2.306;2022-07-29T18:04:31;27.00;99.90
16253;DHT22;8234;41.480;2.306;2022-07-29T18:14:35;26.70;99.90
16253;DHT22;8234;41.480;2.306;2022-07-29T18:24:41;26.40;99.90
16253;DHT22;8234;41.480;2.306;2022-07-29T18:34:44;26.30;99.90
16253;DHT22;8234;41.480;2.306;2022-07-29T18:44:50;26.10;99.90
16253;DHT22;8234;41.480;2.306;2022-07-29T18:54:55;25.90;99.90
16253;DHT22;8234;41.480;2.306;2022-07-29T19:05:00;26.00;99.90
16253;DHT22;8234;41.480;2.306;2022-07-29T19:15:04;25.80;99.90
16253;DHT22;8234;41.480;2.306;2022-07-29T19:25:10;25.40;99.90
16253;DHT22;8234;41.480;2.306;2022-07-29T19:35:16;25.40;99.90
16253;DHT22;8234;41.480;2.306;2022-07-29T19:45:35;25.40;99.90
16253;DHT22;8234;41.480;2.306;2022-07-29T19:55:38;25.60;99.90
16253;DHT22;8234;41.480;2.306;2022-07-29T20:05:45;25.40;99.90
16253;DHT22;8234;41.480;2.306;2022-07-29T20:15:52;25.30;99.90
16253;DHT22;8234;41.480;2.306;2022-07-29T20:25:57;24.90;99.90
16253;DHT22;8234;41.480;2.306;2022-07-29T20:36:01;24.90;99.90
16253;DHT22;8234;41.480;2.306;2022-07-29T20:46:06;24.90;99.90
16253;DHT22;8234;41.480;2.306;2022-07-29T20:56:10;24.80;99.90
16253;DHT22;8234;41.480;2.306;2022-07-29T21:06:16;24.70;99.90
16253;DHT22;8234;41.480;2.306;2022-07-29T21:16:19;24.40;99.90
16253;DHT22;8234;41.480;2.306;2022-07-29T21:26:28;24.00;99.90
16253;DHT22;8234;41.480;2.306;2022-07-29T21:36:32;23.90;99.90
16253;DHT22;8234;41.480;2.306;2022-07-29T21:46:52;23.90;99.90
16253;DHT22;8234;41.480;2.306;2022-07-29T21:56:56;23.60;99.90
16253;DHT22;8234;41.480;2.306;2022-07-29T22:07:03;23.50;99.90
16253;DHT22;8234;41.480;2.306;2022-07-29T22:17:07;23.40;99.90
16253;DHT22;8234;41.480;2.306;2022-07-29T22:27:12;23.80;99.90
16253;DHT22;8234;41.480;2.306;2022-07-29T22:37:16;23.80;99.90
16253;DHT22;8234;41.480;2.306;2022-07-29T22:47:21;23.80;99.90
16253;DHT22;8234;41.480;2.306;2022-07-29T22:57:45;23.90;99.90
16253;DHT22;8234;41.480;2.306;2022-07-29T23:07:50;24.00;99.90
16253;DHT22;8234;41.480;2.306;2022-07-29T23:17:54;24.00;99.90
16253;DHT22;8234;41.480;2.306;2022-07-29T23:27:59;23.70;99.90
16253;DHT22;8234;41.480;2.306;2022-07-29T23:38:03;23.50;99.90
16253;DHT22;8234;41.480;2.306;2022-07-29T23:48:09;23.30;99.90
16253;DHT22;8234;41.480;2.306;2022-07-29T23:58:13;23.20;99.90
